Terminal Aerodrome Forecast
Issued by NWS

Home | Current Version | Previous Version | Text Only | Print | Product List | Glossary On
Versions: 1 2 3 4 5 6 7 8 9 10 11 12 13 14 15 16 17
039
FTUS45 KFGZ 061120
TAFSEZ
TAF
KSEZ 061120Z 0612/0712 VRB05KT P6SM FEW120 SCT150 BKN250
     FM061900 20010G18KT P6SM SCT110 BKN150
     FM070100 21005KT P6SM SCT250
     FM070700 VRB05KT P6SM SCT030=

USA.gov is the U.S. government's official web portal to all federal, state and local government web resources and services.